createdAt,value
2018-11-26T09:22:06.642Z,76.82
2018-11-26T09:23:06.553Z,79.35
2018-11-26T09:24:06.526Z,82.35
2018-11-26T09:25:06.488Z,85.72
2018-11-26T09:26:06.525Z,88.01
2018-11-26T09:27:09.863Z,89.76
2018-11-26T09:28:06.411Z,90.33
2018-11-26T09:29:06.394Z,91.09
2018-11-26T09:30:06.339Z,92.42
2018-11-26T09:31:06.358Z,93.70
2018-11-26T09:32:06.281Z,94.74
2018-11-26T09:33:06.244Z,95.31
2018-11-26T09:34:06.272Z,95.88
2018-11-26T09:35:06.799Z,96.92
2018-11-26T09:36:06.302Z,97.50
2018-11-26T09:37:06.221Z,98.25
2018-11-26T09:38:06.095Z,98.96
2018-11-26T09:39:06.745Z,99.82
2018-11-26T09:40:06.773Z,99.99
2018-11-26T09:41:06.065Z,99.99
2018-11-26T09:42:06.034Z,99.99
2018-11-26T09:43:05.930Z,99.99
2018-11-26T09:44:05.904Z,99.99
2018-11-26T09:45:05.913Z,99.99
2018-11-26T09:46:06.306Z,99.99
2018-11-26T09:47:05.806Z,99.99
2018-11-26T09:48:05.776Z,99.99
2018-11-26T09:49:05.785Z,99.99
2018-11-26T09:50:05.710Z,99.99
2018-11-26T09:51:05.839Z,99.99
2018-11-26T09:52:05.645Z,99.99
2018-11-26T09:53:05.610Z,99.99
2018-11-26T09:54:05.581Z,99.99
2018-11-26T09:55:05.545Z,99.99
2018-11-26T09:56:05.669Z,99.99
2018-11-26T09:57:05.491Z,99.99
2018-11-26T09:58:05.452Z,99.99
2018-11-26T09:59:05.481Z,99.99
2018-11-26T10:00:05.388Z,99.99
2018-11-26T10:01:05.401Z,99.99
2018-11-26T10:02:05.382Z,99.99
2018-11-26T10:03:05.364Z,99.99
2018-11-26T10:04:05.258Z,99.99
2018-11-26T10:05:05.244Z,99.99
2018-11-26T10:06:05.194Z,99.99
2018-11-26T10:07:05.222Z,99.99
2018-11-26T10:08:05.137Z,99.99
2018-11-26T10:09:05.101Z,99.99
2018-11-26T10:10:05.076Z,99.99
2018-11-26T10:11:05.034Z,99.99
2018-11-26T10:12:05.052Z,99.99
2018-11-26T10:13:05.017Z,99.99
2018-11-26T10:14:04.937Z,99.99
2018-11-26T10:15:04.906Z,99.99
2018-11-26T10:16:04.878Z,99.99
2018-11-26T10:17:04.855Z,99.99
2018-11-26T10:18:04.857Z,99.99
2018-11-26T10:19:04.778Z,99.99
2018-11-26T10:20:04.760Z,99.99
2018-11-26T10:21:04.770Z,99.99
2018-11-26T10:22:04.728Z,99.99
2018-11-26T10:23:04.704Z,99.99
2018-11-26T10:24:04.630Z,99.99
2018-11-26T10:25:06.025Z,99.99
2018-11-26T10:26:04.560Z,99.99
2018-11-26T10:27:04.523Z,99.99
2018-11-26T10:28:04.533Z,99.99
2018-11-26T10:29:04.464Z,99.99
2018-11-26T10:30:05.253Z,99.99
2018-11-26T10:31:04.440Z,99.99
2018-11-26T10:32:04.415Z,99.99
2018-11-26T10:33:04.426Z,99.99
2018-11-26T10:34:04.299Z,99.99
2018-11-26T10:35:04.266Z,99.99
2018-11-26T10:36:04.237Z,99.99
2018-11-26T10:37:04.268Z,99.99
2018-11-26T10:38:04.258Z,99.99
2018-11-26T10:39:04.136Z,99.99
2018-11-26T10:40:04.108Z,99.99
2018-11-26T10:41:04.126Z,99.99
2018-11-26T10:42:04.037Z,99.99
2018-11-26T10:43:04.005Z,99.99
2018-11-26T10:44:03.977Z,99.99
2018-11-26T10:45:04.052Z,99.99
2018-11-26T10:46:03.916Z,99.44
2018-11-26T10:47:03.884Z,99.54
2018-11-26T10:48:03.864Z,99.16
2018-11-26T10:49:03.828Z,99.26
2018-11-26T10:50:03.827Z,98.49
2018-11-26T10:51:03.813Z,98.11
2018-11-26T10:52:03.720Z,98.87
2018-11-26T10:53:03.695Z,98.97
2018-11-26T10:54:03.668Z,99.26
2018-11-26T10:55:03.805Z,99.73
2018-11-26T10:56:03.660Z,99.44
2018-11-26T10:57:03.637Z,99.54
2018-11-26T10:58:04.263Z,99.63
2018-11-26T10:59:03.511Z,99.44
2018-11-26T11:00:03.468Z,99.54
2018-11-26T11:01:03.436Z,99.54
2018-11-26T11:02:03.830Z,99.73
2018-11-26T11:03:03.382Z,99.82
2018-11-26T11:04:03.338Z,99.91
2018-11-26T11:05:03.313Z,99.99
2018-11-26T11:06:03.328Z,99.99
2018-11-26T11:07:03.307Z,99.99
2018-11-26T11:08:03.276Z,99.99
2018-11-26T11:09:03.186Z,99.99
2018-11-26T11:10:03.152Z,99.99
2018-11-26T11:11:03.127Z,99.99
2018-11-26T11:12:03.087Z,99.99
2018-11-26T11:13:03.114Z,99.99
2018-11-26T11:14:03.026Z,99.99
2018-11-26T11:15:02.992Z,99.99
2018-11-26T11:16:02.961Z,99.99
2018-11-26T11:17:02.930Z,99.99
2018-11-26T11:18:02.937Z,99.99
2018-11-26T11:19:02.871Z,99.99
2018-11-26T11:20:02.835Z,99.99
2018-11-26T11:21:02.861Z,99.99
2018-11-26T11:22:02.771Z,99.99
2018-11-26T11:23:02.737Z,99.99
2018-11-26T11:24:02.713Z,99.99
2018-11-26T11:25:02.676Z,99.99
2018-11-26T11:26:02.685Z,99.99
2018-11-26T11:27:02.607Z,99.99
2018-11-26T11:28:02.573Z,99.99
2018-11-26T11:29:02.588Z,99.99
2018-11-26T11:30:02.513Z,99.99
2018-11-26T11:31:02.481Z,99.99
2018-11-26T11:32:02.446Z,99.99
2018-11-26T11:34:02.403Z,99.99
2018-11-26T11:35:02.350Z,99.82
2018-11-26T11:36:02.314Z,99.54
2018-11-26T11:37:02.332Z,98.87
2018-11-26T11:38:02.297Z,98.87
2018-11-26T11:39:02.222Z,99.26
2018-11-26T11:40:02.190Z,99.06
2018-11-26T11:41:02.155Z,99.26
2018-11-26T11:42:02.124Z,99.06
2018-11-26T11:43:02.166Z,99.26
2018-11-26T11:44:02.065Z,99.06
2018-11-26T11:45:02.033Z,98.49
2018-11-26T11:46:01.998Z,98.49
2018-11-26T11:47:01.965Z,98.49
2018-11-26T11:48:01.979Z,98.16
2018-11-26T11:49:01.901Z,98.49
2018-11-26T11:50:01.873Z,98.87
2018-11-26T11:51:01.834Z,97.92
2018-11-26T11:52:01.804Z,97.45
2018-11-26T11:53:01.813Z,98.21
2018-11-26T11:54:01.738Z,98.11
2018-11-26T11:55:01.707Z,97.92
2018-11-26T11:56:01.676Z,97.92
2018-11-26T11:57:01.664Z,98.30
2018-11-26T11:58:01.687Z,97.36
2018-11-26T11:59:01.578Z,97.26
2018-11-26T12:00:01.547Z,97.26
2018-11-26T12:01:01.521Z,97.45
2018-11-26T12:02:01.506Z,97.92
2018-11-26T12:03:01.497Z,98.02
2018-11-26T12:04:01.436Z,98.21
2018-11-26T12:05:01.391Z,97.74
2018-11-26T12:06:01.358Z,97.36
2018-11-26T12:07:01.330Z,97.26
2018-11-26T12:08:01.365Z,97.36
2018-11-26T12:09:01.261Z,97.45
2018-11-26T12:10:01.261Z,98.02
2018-11-26T12:11:01.197Z,97.97
2018-11-26T12:12:01.162Z,98.35
2018-11-26T12:13:01.360Z,98.63
2018-11-26T12:14:01.099Z,98.73
2018-11-26T12:15:01.069Z,98.87
2018-11-26T12:16:01.041Z,98.40
2018-11-26T12:17:01.007Z,98.40
2018-11-26T12:18:01.012Z,98.11
2018-11-26T12:19:00.936Z,98.02
2018-11-26T12:20:00.902Z,97.26
2018-11-26T12:21:00.918Z,97.40
2018-11-26T12:22:00.888Z,98.16
2018-11-26T12:23:00.891Z,97.50
2018-11-26T12:24:00.790Z,98.11
2018-11-26T12:25:00.753Z,98.21
2018-11-26T12:26:00.722Z,97.36
2018-11-26T12:27:00.679Z,97.45
2018-11-26T12:28:01.670Z,96.97
2018-11-26T12:29:00.616Z,96.88
2018-11-26T12:30:00.589Z,97.17
2018-11-26T12:31:00.551Z,96.59
2018-11-26T12:32:00.519Z,96.88
2018-11-26T12:33:00.549Z,96.31
2018-11-26T12:34:00.457Z,96.59
2018-11-26T12:35:00.434Z,96.50
2018-11-26T12:36:00.391Z,96.59
2018-11-26T12:37:00.357Z,96.69
2018-11-26T12:38:00.390Z,95.93
2018-11-26T12:39:00.296Z,96.31
2018-11-26T12:40:00.265Z,96.12
2018-11-26T12:41:00.227Z,96.45
2018-11-26T12:42:04.201Z,96.22
2018-11-26T12:43:00.204Z,96.12
2018-11-26T12:44:00.137Z,96.69
2018-11-26T12:45:00.101Z,96.59
2018-11-26T12:46:00.077Z,96.03
2018-11-26T12:47:00.039Z,96.59
2018-11-26T12:48:00.064Z,96.50
2018-11-26T12:48:59.972Z,96.78
2018-11-26T12:49:59.941Z,96.22
2018-11-26T12:50:59.909Z,96.03
2018-11-26T12:52:00.766Z,96.22
2018-11-26T12:52:59.899Z,96.50
2018-11-26T12:53:59.828Z,96.31
2018-11-26T12:54:59.781Z,96.50
2018-11-26T12:55:59.754Z,96.12
2018-11-26T12:56:59.715Z,96.03
2018-11-26T12:57:59.740Z,96.12
2018-11-26T12:58:59.651Z,96.59
2018-11-26T12:59:59.619Z,96.03
2018-11-26T13:01:00.277Z,96.36
2018-11-26T13:01:59.559Z,96.59
2018-11-26T13:02:59.676Z,96.69
2018-11-26T13:03:59.488Z,96.97
2018-11-26T13:05:00.270Z,96.64
2018-11-26T13:05:59.425Z,96.64
2018-11-26T13:06:59.393Z,96.45
2018-11-26T13:07:59.415Z,96.55
2018-11-26T13:08:59.328Z,96.26
2018-11-26T13:09:59.295Z,97.02
2018-11-26T13:10:59.260Z,96.83
2018-11-26T13:11:59.225Z,96.83
2018-11-26T13:12:59.240Z,97.02
2018-11-26T13:13:59.170Z,97.02
2018-11-26T13:14:59.135Z,96.83
2018-11-26T13:15:59.140Z,96.92
2018-11-26T13:16:59.065Z,97.50
2018-11-26T13:17:59.036Z,97.31
2018-11-26T13:18:59.001Z,97.21
2018-11-26T13:19:58.968Z,97.21
2018-11-26T13:20:58.982Z,97.40
2018-11-26T13:21:58.954Z,98.16
2018-11-26T13:22:58.872Z,97.88
2018-11-26T13:23:58.836Z,98.35
2018-11-26T13:24:58.872Z,98.25
2018-11-26T13:25:58.821Z,97.69
2018-11-26T13:26:58.744Z,97.88
2018-11-26T13:27:58.732Z,97.97
2018-11-26T13:28:58.671Z,98.16
2018-11-26T13:29:58.687Z,97.88
2018-11-26T13:30:58.656Z,97.59
2018-11-26T13:31:58.576Z,98.25
2018-11-26T13:32:58.548Z,97.31
2018-11-26T13:33:58.516Z,97.59
2018-11-26T13:34:58.486Z,98.16
2018-11-26T13:35:58.488Z,97.97
2018-11-26T13:36:58.413Z,97.59
2018-11-26T13:37:58.394Z,98.16
2018-11-26T13:38:58.359Z,98.44
2018-11-26T13:39:58.377Z,98.35
2018-11-26T13:40:58.280Z,98.44
2018-11-26T13:41:58.252Z,98.16
2018-11-26T13:42:58.262Z,98.44
2018-11-26T13:43:58.191Z,98.35
2018-11-26T13:44:58.153Z,98.54
2018-11-26T13:45:58.129Z,98.16
2018-11-26T13:46:58.088Z,98.44
2018-11-26T13:47:58.125Z,98.54
2018-11-26T13:48:58.284Z,98.54
2018-11-26T13:49:57.990Z,98.82
2018-11-26T13:50:57.999Z,99.30
2018-11-26T13:51:57.921Z,99.87
2018-11-26T13:52:57.942Z,99.87
2018-11-26T13:53:57.862Z,99.39
2018-11-26T13:54:57.824Z,99.49
2018-11-26T13:55:57.791Z,99.87
2018-11-26T13:56:57.766Z,99.58
2018-11-26T13:57:58.763Z,99.96
2018-11-26T13:58:58.277Z,99.58
2018-11-26T13:59:57.680Z,99.87
2018-11-26T14:00:57.635Z,99.99
2018-11-26T14:01:58.276Z,99.96
2018-11-26T14:02:57.873Z,98.63
2018-11-26T14:03:57.528Z,98.92
2018-11-26T14:04:57.540Z,99.11
2018-11-26T14:05:57.515Z,99.11
2018-11-26T14:06:57.432Z,98.73
2018-11-26T14:07:57.443Z,98.63
2018-11-26T14:08:57.658Z,98.44
2018-11-26T14:09:57.379Z,98.44
2018-11-26T14:10:57.310Z,98.82
2018-11-26T14:11:57.317Z,98.25
2018-11-26T14:12:57.236Z,98.25
2018-11-26T14:13:57.203Z,97.78
2018-11-26T14:14:57.203Z,97.88
2018-11-26T14:15:57.272Z,97.88
2018-11-26T14:16:57.110Z,97.78
2018-11-26T14:17:57.078Z,98.07
2018-11-26T14:18:57.039Z,98.07
2018-11-26T14:19:57.006Z,97.97
2018-11-26T14:20:57.025Z,98.63
2018-11-26T14:21:56.944Z,98.07
2018-11-26T14:22:56.956Z,98.35
2018-11-26T14:23:56.875Z,98.44
2018-11-26T14:24:56.859Z,98.25
2018-11-26T14:25:56.811Z,98.54
2018-11-26T14:26:56.780Z,98.44
2018-11-26T14:27:56.800Z,98.92
2018-11-26T14:28:57.292Z,99.11
2018-11-26T14:29:56.697Z,99.20
2018-11-26T14:30:56.647Z,99.20
2018-11-26T14:31:56.616Z,99.20
2018-11-26T14:32:56.630Z,99.01
2018-11-26T14:33:56.591Z,98.82
2018-11-26T14:34:56.530Z,98.82
2018-11-26T14:35:56.526Z,98.92
2018-11-26T14:36:56.644Z,98.82
2018-11-26T14:37:57.299Z,98.54
2018-11-26T14:38:56.386Z,98.73
2018-11-26T14:39:56.405Z,98.54
2018-11-26T14:40:56.323Z,99.01
2018-11-26T14:41:56.336Z,98.82
2018-11-26T14:42:56.283Z,99.20
2018-11-26T14:43:56.229Z,98.63
2018-11-26T14:44:56.196Z,99.06
2018-11-26T14:45:56.344Z,98.68
2018-11-26T14:46:56.783Z,99.06
2018-11-26T14:47:56.781Z,99.68
2018-11-26T14:48:56.056Z,99.63
2018-11-26T14:49:56.024Z,99.72
2018-11-26T14:50:56.348Z,99.63
2018-11-26T14:51:55.960Z,99.34
2018-11-26T14:52:55.932Z,99.34
2018-11-26T14:53:55.898Z,99.72
2018-11-26T14:54:55.864Z,99.91
2018-11-26T14:55:55.877Z,99.34
2018-11-26T14:56:55.834Z,99.99
2018-11-26T14:57:55.834Z,99.99
2018-11-26T14:58:55.843Z,99.99
2018-11-26T14:59:55.715Z,99.99
2018-11-26T15:00:55.717Z,99.99
2018-11-26T15:01:55.635Z,99.99
2018-11-26T15:02:55.695Z,99.99
2018-11-26T15:03:55.566Z,99.99
2018-11-26T15:04:55.537Z,99.99
2018-11-26T15:05:55.502Z,99.99
2018-11-26T15:06:55.483Z,99.99
2018-11-26T15:07:55.501Z,99.99
2018-11-26T15:08:56.290Z,99.99
2018-11-26T15:09:55.371Z,99.99
2018-11-26T15:10:55.328Z,99.99
2018-11-26T15:11:55.335Z,99.99
2018-11-26T15:12:55.353Z,99.99
2018-11-26T15:13:55.238Z,99.99
2018-11-26T15:14:55.200Z,99.99
2018-11-26T15:15:55.814Z,99.99
2018-11-26T15:16:55.141Z,99.99
2018-11-26T15:17:55.150Z,99.99
2018-11-26T15:18:55.097Z,99.99
2018-11-26T15:19:55.059Z,99.99
2018-11-26T15:20:55.803Z,99.99
2018-11-26T15:21:55.791Z,99.99
2018-11-26T15:22:54.986Z,99.99
2018-11-26T15:23:55.836Z,99.99
2018-11-26T15:24:54.869Z,99.99
2018-11-26T15:25:55.361Z,99.99
2018-11-26T15:26:55.692Z,99.99
2018-11-26T15:27:54.838Z,99.99
2018-11-26T15:28:54.749Z,99.99
2018-11-26T15:29:54.721Z,99.99
2018-11-26T15:30:54.773Z,99.99
2018-11-26T15:31:55.310Z,99.99
2018-11-26T15:32:54.608Z,99.99
2018-11-26T15:33:54.636Z,99.99
2018-11-26T15:34:54.542Z,99.99
2018-11-26T15:35:54.534Z,99.99
2018-11-26T15:36:54.511Z,99.99
2018-11-26T15:37:54.443Z,99.99
2018-11-26T15:38:54.450Z,99.99
2018-11-26T15:39:54.451Z,99.99
2018-11-26T15:40:54.359Z,99.99
2018-11-26T15:41:55.318Z,99.99
2018-11-26T15:42:54.274Z,99.99
2018-11-26T15:43:54.238Z,99.99
2018-11-26T15:44:54.353Z,99.99
2018-11-26T15:45:54.217Z,99.99
2018-11-26T15:46:54.189Z,99.99
2018-11-26T15:47:54.107Z,99.99
2018-11-26T15:48:54.128Z,99.99
2018-11-26T15:49:54.052Z,99.99
2018-11-26T15:50:54.071Z,99.99
2018-11-26T15:51:54.814Z,99.99
2018-11-26T15:52:53.937Z,99.99
2018-11-26T15:53:53.943Z,99.99
2018-11-26T15:54:53.882Z,99.99
2018-11-26T15:55:53.886Z,99.99
2018-11-26T15:56:53.822Z,99.99
2018-11-26T15:57:53.773Z,99.99
2018-11-26T15:58:53.738Z,99.99
2018-11-26T15:59:53.707Z,99.99
2018-11-26T16:00:53.739Z,99.99
2018-11-26T16:01:53.657Z,99.99
2018-11-26T16:02:53.605Z,99.99
2018-11-26T16:03:53.610Z,99.99
2018-11-26T16:04:53.547Z,99.99
2018-11-26T16:05:53.574Z,99.99
2018-11-26T16:06:53.519Z,99.99
2018-11-26T16:07:53.503Z,99.99
2018-11-26T16:08:53.415Z,99.99
2018-11-26T16:09:53.402Z,99.99
2018-11-26T16:10:53.339Z,99.99
2018-11-26T16:11:53.351Z,99.99
2018-11-26T16:12:53.300Z,99.99
2018-11-26T16:13:53.247Z,99.99
2018-11-26T16:14:53.228Z,99.99
2018-11-26T16:15:53.812Z,99.99
2018-11-26T16:16:53.188Z,99.99
2018-11-26T16:17:53.155Z,99.99
2018-11-26T16:18:53.076Z,99.99
2018-11-26T16:19:53.054Z,99.99
2018-11-26T16:20:53.009Z,99.99
2018-11-26T16:21:52.979Z,99.99
2018-11-26T16:22:53.030Z,99.99
2018-11-26T16:23:52.936Z,99.99
2018-11-26T16:24:52.873Z,99.99
2018-11-26T16:25:53.825Z,99.99
2018-11-26T16:26:53.956Z,99.99
2018-11-26T16:27:52.874Z,99.99
2018-11-26T16:28:53.327Z,99.99
2018-11-26T16:29:52.723Z,99.99
2018-11-26T16:30:52.705Z,99.99
2018-11-26T16:31:52.658Z,99.99
2018-11-26T16:32:52.661Z,99.99
2018-11-26T16:33:52.651Z,99.99
2018-11-26T16:34:52.545Z,99.99
2018-11-26T16:35:53.321Z,99.99
2018-11-26T16:36:52.482Z,99.99
2018-11-26T16:37:52.508Z,99.99
2018-11-26T16:38:52.417Z,99.99
2018-11-26T16:39:52.386Z,99.99
2018-11-26T16:40:52.647Z,99.99
2018-11-26T16:41:52.307Z,99.99
2018-11-26T16:42:52.373Z,99.99
2018-11-26T16:43:52.326Z,99.99
2018-11-26T16:44:52.226Z,99.99
2018-11-26T16:45:52.183Z,99.99
2018-11-26T16:46:52.802Z,99.99
2018-11-26T16:47:52.113Z,99.99
2018-11-26T16:48:52.144Z,99.99
2018-11-26T16:49:52.046Z,99.99
2018-11-26T16:50:52.012Z,99.99
2018-11-26T16:51:51.978Z,99.99
2018-11-26T16:52:51.999Z,99.99
2018-11-26T16:53:52.872Z,99.99
2018-11-26T16:54:51.875Z,99.99
2018-11-26T16:55:52.812Z,99.99
2018-11-26T16:56:51.825Z,99.99
2018-11-26T16:57:51.829Z,99.99
2018-11-26T16:58:51.750Z,99.99
2018-11-26T16:59:51.718Z,99.99
2018-11-26T17:00:51.720Z,99.99
2018-11-26T17:01:51.646Z,99.99
2018-11-26T17:02:51.857Z,99.99
2018-11-26T17:03:51.579Z,99.99
2018-11-26T17:04:51.554Z,99.99
2018-11-26T17:05:51.584Z,99.99
2018-11-26T17:06:52.304Z,99.99
2018-11-26T17:07:51.466Z,99.99
2018-11-26T17:08:51.471Z,99.99
2018-11-26T17:09:51.521Z,99.99
2018-11-26T17:10:51.344Z,99.99
2018-11-26T17:11:51.328Z,99.99
2018-11-26T17:12:51.282Z,99.99
2018-11-26T17:13:51.326Z,99.99
2018-11-26T17:14:51.210Z,99.99
2018-11-26T17:15:51.229Z,99.99
2018-11-26T17:16:51.151Z,99.99
2018-11-26T17:17:51.803Z,99.99
2018-11-26T17:18:51.121Z,99.99
2018-11-26T17:19:51.046Z,99.99
2018-11-26T17:20:51.057Z,99.99
2018-11-26T17:21:50.990Z,99.99
2018-11-26T17:22:50.996Z,99.99
2018-11-26T17:23:50.911Z,99.99
2018-11-26T17:24:50.879Z,99.99
2018-11-26T17:25:50.847Z,99.99
2018-11-26T17:26:50.834Z,99.99
2018-11-26T17:27:50.828Z,99.99
2018-11-26T17:28:50.791Z,99.99
2018-11-26T17:29:50.762Z,99.99
2018-11-26T17:30:51.726Z,99.99
2018-11-26T17:31:50.642Z,99.99
2018-11-26T17:32:50.609Z,99.99
2018-11-26T17:33:50.589Z,99.99
2018-11-26T17:34:50.551Z,99.99
2018-11-26T17:35:50.561Z,99.99
2018-11-26T17:36:50.475Z,99.99
2018-11-26T17:37:50.441Z,99.99
2018-11-26T17:38:50.428Z,99.99
2018-11-26T17:39:50.373Z,99.99
2018-11-26T17:40:50.388Z,99.99
2018-11-26T17:41:51.303Z,99.99
2018-11-26T17:42:50.806Z,99.99
2018-11-26T17:43:50.239Z,99.99
2018-11-26T17:44:50.214Z,99.99
2018-11-26T17:45:50.238Z,99.91
2018-11-26T17:46:50.194Z,99.72
2018-11-26T17:47:50.110Z,99.99
2018-11-26T17:48:50.115Z,99.99
2018-11-26T17:49:50.043Z,99.99
2018-11-26T17:50:50.055Z,99.99
2018-11-26T17:51:50.029Z,99.99
2018-11-26T17:52:49.943Z,99.99
2018-11-26T17:53:49.903Z,99.99
2018-11-26T17:54:49.873Z,99.99
2018-11-26T17:55:49.883Z,99.99
2018-11-26T17:56:49.886Z,99.99
2018-11-26T17:57:49.818Z,99.99
2018-11-26T17:58:49.737Z,99.99
2018-11-26T17:59:49.699Z,99.99
2018-11-26T18:00:49.670Z,99.99
2018-11-26T18:01:49.687Z,99.99
2018-11-26T18:02:49.604Z,99.99
2018-11-26T18:03:49.661Z,99.96
2018-11-26T18:04:49.534Z,99.99
2018-11-26T18:05:49.497Z,99.99
2018-11-26T18:06:49.468Z,99.99
2018-11-26T18:07:49.482Z,99.99
2018-11-26T18:08:49.403Z,99.99
2018-11-26T18:09:49.365Z,99.77
2018-11-26T18:10:50.331Z,99.58
2018-11-26T18:11:49.295Z,99.86
2018-11-26T18:12:49.312Z,99.48
2018-11-26T18:13:49.862Z,99.67
2018-11-26T18:14:49.201Z,99.58
2018-11-26T18:15:49.160Z,99.58
2018-11-26T18:16:49.127Z,99.20
2018-11-26T18:17:49.092Z,99.58
2018-11-26T18:18:49.131Z,99.86
2018-11-26T18:19:49.030Z,99.77
2018-11-26T18:20:49.036Z,99.99
2018-11-26T18:21:48.968Z,99.86
2018-11-26T18:22:48.929Z,99.99
2018-11-26T18:23:49.810Z,99.86
2018-11-26T18:24:48.863Z,99.39
2018-11-26T18:25:48.868Z,99.58
2018-11-26T18:26:48.798Z,99.77
2018-11-26T18:27:48.763Z,99.20
2018-11-26T18:28:48.724Z,99.86
2018-11-26T18:29:48.693Z,99.77
2018-11-26T18:30:48.724Z,99.77
2018-11-26T18:31:48.624Z,99.29
2018-11-26T18:32:48.592Z,98.82
2018-11-26T18:33:48.596Z,98.63
2018-11-26T18:34:48.523Z,97.97
2018-11-26T18:35:48.535Z,97.97
2018-11-26T18:36:48.474Z,97.78
2018-11-26T18:37:48.508Z,98.35
2018-11-26T18:38:48.385Z,97.59
2018-11-26T18:39:48.381Z,97.78
2018-11-26T18:40:48.359Z,97.87
2018-11-26T18:41:48.288Z,97.97
2018-11-26T18:42:48.306Z,97.59
2018-11-26T18:43:48.262Z,97.97
2018-11-26T18:44:48.179Z,97.78
2018-11-26T18:45:48.806Z,98.25
2018-11-26T18:46:48.152Z,98.06
2018-11-26T18:47:48.152Z,97.68
2018-11-26T18:48:48.047Z,97.78
2018-11-26T18:49:48.017Z,97.78
2018-11-26T18:50:47.977Z,98.30
2018-11-26T18:51:47.960Z,97.97
2018-11-26T18:52:47.963Z,97.83
2018-11-26T18:53:47.923Z,97.92
2018-11-26T18:54:47.845Z,97.73
2018-11-26T18:55:47.813Z,98.11
2018-11-26T18:56:47.786Z,97.40
2018-11-26T18:57:47.835Z,97.35
2018-11-26T18:58:47.805Z,96.59
2018-11-26T18:59:47.682Z,96.78
2018-11-26T19:00:47.645Z,97.07
2018-11-26T19:01:48.318Z,96.88
2018-11-26T19:02:47.575Z,97.07
2018-11-26T19:03:47.660Z,97.45
2018-11-26T19:04:47.508Z,97.07
2018-11-26T19:05:47.479Z,96.97
2018-11-26T19:06:47.455Z,96.26
2018-11-26T19:07:47.408Z,95.84
2018-11-26T19:08:47.418Z,95.45
2018-11-26T19:09:47.338Z,95.45
2018-11-26T19:10:47.322Z,95.26
2018-11-26T19:11:47.277Z,94.51
2018-11-26T19:12:47.308Z,93.75
2018-11-26T19:13:47.223Z,93.89
2018-11-26T19:14:47.219Z,93.42
2018-11-26T19:15:47.146Z,92.99
2018-11-26T19:16:47.108Z,93.13
2018-11-26T19:17:47.068Z,92.76
2018-11-26T19:18:47.046Z,91.71
2018-11-26T19:19:47.180Z,91.52
2018-11-26T19:20:46.971Z,91.24
2018-11-26T19:21:46.934Z,91.43
2018-11-26T19:22:46.901Z,91.43
2018-11-26T19:23:46.905Z,91.52
2018-11-26T19:24:46.837Z,91.33
2018-11-26T19:25:46.860Z,91.19
2018-11-26T19:26:46.771Z,91.43
2018-11-26T19:27:46.733Z,91.09
2018-11-26T19:28:46.705Z,90.62
2018-11-26T19:29:46.666Z,90.62
2018-11-26T19:30:46.887Z,90.62
2018-11-26T19:31:46.595Z,90.62
2018-11-26T19:32:46.563Z,91.00
2018-11-26T19:33:46.526Z,90.53
2018-11-26T19:34:46.496Z,90.77
2018-11-26T19:35:46.502Z,90.81
2018-11-26T19:36:46.465Z,90.67
2018-11-26T19:37:46.393Z,90.24
2018-11-26T19:38:46.357Z,90.01
2018-11-26T19:39:46.323Z,90.01
2018-11-26T19:40:46.349Z,90.01
2018-11-26T19:41:46.256Z,90.01
2018-11-26T19:42:46.227Z,90.77
2018-11-26T19:43:46.197Z,90.53
2018-11-26T19:44:46.260Z,90.39
2018-11-26T19:45:46.172Z,90.29
2018-11-26T19:46:46.135Z,89.77
2018-11-26T19:47:46.064Z,90.01
2018-11-26T19:48:46.022Z,89.86
2018-11-26T19:49:46.030Z,89.86
2018-11-26T19:50:45.969Z,89.72
2018-11-26T19:51:45.972Z,89.53
2018-11-26T19:52:45.889Z,89.72
2018-11-26T19:53:45.854Z,89.67
2018-11-26T19:54:45.868Z,89.77
2018-11-26T19:55:46.363Z,90.05
2018-11-26T19:56:45.807Z,90.05
2018-11-26T19:57:45.731Z,90.24
2018-11-26T19:58:45.681Z,89.58
2018-11-26T19:59:45.648Z,89.67
2018-11-26T20:00:45.623Z,88.92
2018-11-26T20:01:45.623Z,89.39
2018-11-26T20:02:45.591Z,89.01
2018-11-26T20:03:45.554Z,89.29
2018-11-26T20:04:45.483Z,88.82
2018-11-26T20:05:45.442Z,89.11
2018-11-26T20:06:45.413Z,88.59
2018-11-26T20:07:46.358Z,88.87
2018-11-26T20:08:45.402Z,88.96
2018-11-26T20:09:45.358Z,89.48
2018-11-26T20:10:45.276Z,88.87
2018-11-26T20:11:45.247Z,89.53
2018-11-26T20:12:45.272Z,89.53
2018-11-26T20:13:45.231Z,89.44
2018-11-26T20:14:45.161Z,89.44
2018-11-26T20:15:45.112Z,89.44
2018-11-26T20:16:45.068Z,89.63
2018-11-26T20:17:45.384Z,89.44
2018-11-26T20:18:45.045Z,89.44
2018-11-26T20:19:44.975Z,89.34
2018-11-26T20:20:44.943Z,89.39
2018-11-26T20:21:44.930Z,89.34
2018-11-26T20:22:45.921Z,89.58
2018-11-26T20:23:44.919Z,89.25
2018-11-26T20:24:44.832Z,89.39
2018-11-26T20:25:46.205Z,89.01
2018-11-26T20:26:44.788Z,88.87
2018-11-26T20:27:44.730Z,88.63
2018-11-26T20:28:44.730Z,88.92
2018-11-26T20:29:44.691Z,88.63
2018-11-26T20:30:44.608Z,89.15
2018-11-26T20:31:44.569Z,88.78
2018-11-26T20:32:44.536Z,88.87
2018-11-26T20:33:44.513Z,88.92
2018-11-26T20:34:44.890Z,88.73
2018-11-26T20:35:44.439Z,89.20
2018-11-26T20:36:44.903Z,89.01
2018-11-26T20:37:44.363Z,88.96
2018-11-26T20:38:44.396Z,88.96
2018-11-26T20:39:44.838Z,89.44
2018-11-26T20:40:44.288Z,88.87
2018-11-26T20:41:44.237Z,88.49
2018-11-26T20:42:44.210Z,88.96
2018-11-26T20:43:44.221Z,89.25
2018-11-26T20:44:44.155Z,89.34
2018-11-26T20:45:44.839Z,88.96
2018-11-26T20:46:49.031Z,89.15
2018-11-26T20:47:44.070Z,89.39
2018-11-26T20:48:44.050Z,89.44
2018-11-26T20:49:43.970Z,89.01
2018-11-26T20:50:43.975Z,89.20
2018-11-26T20:51:43.947Z,88.92
2018-11-26T20:52:43.890Z,88.82
2018-11-26T20:53:43.880Z,88.82
2018-11-26T20:54:43.858Z,89.48
2018-11-26T20:55:43.767Z,89.01
2018-11-26T20:56:43.766Z,89.48
2018-11-26T20:57:44.225Z,89.58
2018-11-26T20:58:44.339Z,90.24
2018-11-26T20:59:43.758Z,89.96
2018-11-26T21:00:43.598Z,90.39
2018-11-26T21:01:43.561Z,90.53
2018-11-26T21:02:44.225Z,90.34
2018-11-26T21:03:44.334Z,90.43
2018-11-26T21:04:43.886Z,89.58
2018-11-26T21:05:43.480Z,89.86
2018-11-26T21:06:43.492Z,89.86
2018-11-26T21:07:45.356Z,89.96
2018-11-26T21:08:43.331Z,89.96
2018-11-26T21:09:43.304Z,90.10
2018-11-26T21:10:43.367Z,90.20
2018-11-26T21:11:43.241Z,90.91
2018-11-26T21:12:43.696Z,90.39
2018-11-26T21:13:43.167Z,90.67
2018-11-26T21:14:43.203Z,90.95
2018-11-26T21:15:43.153Z,91.14
2018-11-26T21:16:43.058Z,91.33
2018-11-26T21:17:43.036Z,92.00
2018-11-26T21:18:42.987Z,92.28
2018-11-26T21:19:42.963Z,92.76
2018-11-26T21:20:43.448Z,93.32
2018-11-26T21:21:42.905Z,92.57
2018-11-26T21:22:42.857Z,92.85
2018-11-26T21:23:42.817Z,93.32
2018-11-26T21:24:42.854Z,93.13
2018-11-26T21:25:42.757Z,93.70
2018-11-26T21:26:42.766Z,93.61
2018-11-26T21:27:42.684Z,94.27
2018-11-26T21:28:42.649Z,94.08
2018-11-26T21:29:42.620Z,94.74
2018-11-26T21:30:42.587Z,95.22
2018-11-26T21:31:42.596Z,95.31
2018-11-26T21:32:43.322Z,95.50
2018-11-26T21:33:42.485Z,95.79
2018-11-26T21:34:42.451Z,95.98
2018-11-26T21:35:42.412Z,96.36
2018-11-26T21:36:42.434Z,96.36
2018-11-26T21:37:42.357Z,96.64
2018-11-26T21:38:42.333Z,97.68
2018-11-26T21:39:42.276Z,98.06
2018-11-26T21:40:42.299Z,97.59
2018-11-26T21:41:42.258Z,97.87
2018-11-26T21:42:42.178Z,98.35
2018-11-26T21:43:42.144Z,98.44
2018-11-26T21:44:42.142Z,98.91
2018-11-26T21:45:42.116Z,99.48
2018-11-26T21:46:42.055Z,99.48
2018-11-26T21:47:42.039Z,99.67
2018-11-26T21:48:42.036Z,99.86
2018-11-26T21:49:41.959Z,99.99
2018-11-26T21:50:41.954Z,99.96
2018-11-26T21:51:42.848Z,99.99
2018-11-26T21:52:41.830Z,99.99
2018-11-26T21:53:41.990Z,99.99
2018-11-26T21:54:43.242Z,99.99
2018-11-26T21:55:41.731Z,99.99
2018-11-26T21:56:41.739Z,99.99
2018-11-26T21:57:42.368Z,99.99
2018-11-26T21:58:41.623Z,99.99
2018-11-26T21:59:41.596Z,99.99
2018-11-26T22:00:41.558Z,99.99
2018-11-26T22:01:41.572Z,99.99
2018-11-26T22:02:42.335Z,99.99
2018-11-26T22:03:41.464Z,99.99
2018-11-26T22:04:41.437Z,99.99
2018-11-26T22:05:41.385Z,99.99
2018-11-26T22:06:41.438Z,99.99
2018-11-26T22:07:41.317Z,99.99
2018-11-26T22:08:41.329Z,99.99
2018-11-26T22:09:41.256Z,99.99
2018-11-26T22:10:41.220Z,99.99
2018-11-26T22:11:41.253Z,99.99
2018-11-26T22:12:42.793Z,99.99
2018-11-26T22:13:41.832Z,99.99
2018-11-26T22:14:41.246Z,99.99